Aviation Digital Data Service (ADDS)

Output produced by METARs form (1733 UTC 27 May 2017)
found at http://www.aviationweather.gov/adds/metars/
 
TAF VYMD 271100Z 2712/2812 13005KT 7000 BKN020 FEW025CB 
     TEMPO 2712/ 2718 16007G17KT 4000 -TSRA BKN015 FEW018CB OVC100
       
VYYY 271700Z 09004KT 6000 RA BKN015 FEW018CB BKN100 25/25 Q1005
TAF VYYY 271100Z 2712/2812 14005KT 7000 BKN015 FEW020CB BKN100 
     TEMPO 2712/2718 23006KT 5000 -RA BKN015 FEW018CB BKN100